Millennium Star — WDA2184 — position and weather

sailwx.info

Track history (hours):
 
Tides and Currents Weather Stations Pressure Air Temp Water Temp Dewpoint Dewpoint Depression Visibility Wind Speed Wind Dir Waves Ship Positions

Millennium Star

Owner: Harley Marine Services, INC, SEATTLE, WA. More information available from US FCC via Universal Licensing System and Coast Guard Vessel Documentation Center.

Last reported at 2018-Aug-14 07:01 UTC. Time now 2018-Aug-14 07:01 UTC.
Position N 47°47' W 122°24'.

Length 30 m; draft 4 m.

Type: Tug. MMSI: 366971980.

Date/timePositionNaut miles runAvg speedWind from/ knotsBaromVisibWave heightAir tempDewpointWater temp
2018-Aug-14 07:01N 47°47' W 122°24'0 0.0
2018-Aug-14 06:31N 47°47' W 122°24'0 0.0
2018-Aug-14 06:01N 47°47' W 122°24'0 0.0
2018-Aug-14 05:30N 47°47' W 122°24'0 0.0
2018-Aug-14 05:01N 47°47' W 122°24'0 0.0
2018-Aug-14 04:30N 47°47' W 122°24'0 0.0
2018-Aug-14 04:01N 47°47' W 122°24'0 0.0
2018-Aug-14 03:30N 47°47' W 122°24'0 0.0
2018-Aug-14 03:01N 47°47' W 122°24'0 0.0
2018-Aug-14 02:30N 47°47' W 122°24'0 0.0
2018-Aug-14 02:00N 47°47' W 122°24'0 0.0
2018-Aug-14 01:31N 47°47' W 122°24'0 0.0
2018-Aug-14 01:01N 47°47' W 122°24'0 0.0
2018-Aug-14 00:30N 47°47' W 122°24'0 0.0
2018-Aug-14 00:01N 47°47' W 122°24'1 1.7
2018-Aug-13 23:30N 47°46' W 122°25'5 9.4
2018-Aug-13 23:01N 47°42' W 122°27'4 7.9
2018-Aug-13 22:31N 47°38' W 122°25'1 2.9
2018-Aug-13 22:01N 47°38' W 122°23'0 0.0
2018-Aug-13 21:31N 47°38' W 122°23'0 0.0
2018-Aug-13 20:59N 47°38' W 122°23'0 0.0
2018-Aug-13 20:30N 47°38' W 122°23'0 0.0
2018-Aug-13 20:00N 47°38' W 122°23'0 0.0
2018-Aug-13 19:30N 47°38' W 122°23'0 0.0
2018-Aug-13 19:01N 47°38' W 122°23'0 0.0
2018-Aug-13 18:30N 47°38' W 122°23'0 0.0
2018-Aug-13 18:00N 47°38' W 122°23'0 0.0
2018-Aug-13 17:30N 47°38' W 122°23'0 0.0
2018-Aug-13 17:01N 47°38' W 122°23'0 0.0
2018-Aug-13 16:30N 47°38' W 122°23'0 0.0
2018-Aug-13 16:01N 47°38' W 122°23'0 0.0
2018-Aug-13 15:31N 47°38' W 122°23'0 0.0
2018-Aug-13 15:00N 47°38' W 122°23'0 0.0
2018-Aug-13 14:31N 47°38' W 122°23'0 0.3
2018-Aug-13 14:01N 47°38' W 122°23'2 3.1
2018-Aug-13 13:31N 47°36' W 122°21'2 3.5
2018-Aug-13 13:01N 47°35' W 122°21'0 0.0
2018-Aug-13 12:31N 47°35' W 122°21'0 0.0
2018-Aug-13 12:00N 47°35' W 122°21'0 0.0
2018-Aug-13 11:31N 47°35' W 122°21'0 0.0
2018-Aug-13 11:01N 47°35' W 122°21'0 0.0
2018-Aug-13 10:31N 47°35' W 122°21'0 0.0
2018-Aug-13 10:01N 47°35' W 122°21'0 0.0
2018-Aug-13 09:30N 47°35' W 122°21'0 0.0
2018-Aug-13 09:00N 47°35' W 122°21'0 0.0
2018-Aug-13 08:31N 47°35' W 122°21'0 0.0
2018-Aug-13 08:01N 47°35' W 122°21'0 0.0
2018-Aug-13 07:31N 47°35' W 122°21'0 0.0
2018-Aug-13 07:01N 47°35' W 122°21'0 0.0
2018-Aug-13 06:31N 47°35' W 122°21'0 0.0
2018-Aug-13 06:01N 47°35' W 122°21'0 0.0
2018-Aug-13 05:31N 47°35' W 122°21'0 0.0
2018-Aug-13 05:00N 47°35' W 122°21'0 0.0
2018-Aug-13 04:30N 47°35' W 122°21'0 0.0
2018-Aug-13 04:01N 47°35' W 122°21'0 0.0
2018-Aug-13 03:30N 47°35' W 122°21'0 0.0
2018-Aug-13 02:59N 47°35' W 122°21'0 0.0
2018-Aug-13 02:31N 47°35' W 122°21'0 0.0
2018-Aug-13 02:00N 47°35' W 122°21'0 0.0
2018-Aug-13 01:30N 47°35' W 122°21'0 0.0
2018-Aug-13 01:00N 47°35' W 122°21'0 0.0
2018-Aug-13 00:30N 47°35' W 122°21'0 0.0
2018-Aug-13 00:01N 47°35' W 122°21'0 0.0
2018-Aug-12 23:30N 47°35' W 122°21'0 0.0
2018-Aug-12 23:01N 47°35' W 122°21'0 0.0
2018-Aug-12 22:31N 47°35' W 122°21'0 0.0
2018-Aug-12 22:01N 47°35' W 122°21'0 0.0
2018-Aug-12 21:30N 47°35' W 122°21'0 0.0
2018-Aug-12 21:01N 47°35' W 122°21'0 0.1
2018-Aug-12 20:31N 47°35' W 122°21'3 6.5
2018-Aug-12 20:00N 47°38' W 122°23'0 0.0
2018-Aug-12 19:30N 47°38' W 122°23'0 0.0
2018-Aug-12 19:00N 47°38' W 122°23'0 0.0
2018-Aug-12 18:31N 47°38' W 122°23'0 0.0
2018-Aug-12 18:01N 47°38' W 122°23'0 0.0
2018-Aug-12 17:31N 47°38' W 122°23'0 0.0
2018-Aug-12 17:00N 47°38' W 122°23'0 0.0
2018-Aug-12 16:31N 47°38' W 122°23'0 0.0
2018-Aug-12 16:00N 47°38' W 122°23'0 0.0
2018-Aug-12 15:30N 47°38' W 122°23'0 0.0
2018-Aug-12 15:01N 47°38' W 122°23'0 0.1
2018-Aug-12 14:30N 47°38' W 122°23'3 5.8
2018-Aug-12 14:01N 47°39' W 122°27'4 8.1
2018-Aug-12 13:30N 47°43' W 122°27'4 8.2
2018-Aug-12 13:00N 47°47' W 122°25'1 1.5
2018-Aug-12 12:30N 47°47' W 122°24'0 0.0
2018-Aug-12 12:00N 47°47' W 122°24'0 0.0
2018-Aug-12 11:31N 47°47' W 122°24'0 0.0
2018-Aug-12 11:00N 47°47' W 122°24'0 0.0
2018-Aug-12 10:31N 47°47' W 122°24'0 0.0
2018-Aug-12 10:00N 47°47' W 122°24'0 0.0
2018-Aug-12 09:31N 47°47' W 122°24'0 0.0
2018-Aug-12 09:01N 47°47' W 122°24'0 0.0
2018-Aug-12 08:31N 47°47' W 122°24'3 5.8
2018-Aug-12 08:00N 47°44' W 122°25'4 8.1
2018-Aug-12 07:31N 47°40' W 122°27'510.3
2018-Aug-12 07:01N 47°35' W 122°27'510.1
2018-Aug-12 06:30N 47°30' W 122°25'510.2
2018-Aug-12 06:01N 47°25' W 122°22'4 8.3
2018-Aug-12 05:31N 47°21' W 122°23'4 8.9
2018-Aug-12 05:01N 47°18' W 122°27'3 5.3
2018-Aug-12 04:29N 47°16' W 122°24'1 1.1
2018-Aug-12 04:01N 47°16' W 122°23'0 0.0
2018-Aug-12 03:30N 47°16' W 122°23'0 0.0
2018-Aug-12 03:01N 47°16' W 122°23'0 0.0
2018-Aug-12 02:30N 47°16' W 122°23'0 0.0
2018-Aug-12 02:01N 47°16' W 122°23'0 0.0
2018-Aug-12 01:31N 47°16' W 122°23'0 0.0
2018-Aug-12 01:00N 47°16' W 122°23'0 0.0
2018-Aug-12 00:31N 47°16' W 122°23'0 0.0
2018-Aug-12 00:00N 47°16' W 122°23'0 0.0
2018-Aug-11 23:28N 47°16' W 122°23'0 0.0
2018-Aug-11 23:00N 47°16' W 122°23'0 0.0
2018-Aug-11 22:30N 47°16' W 122°23'0 0.0
2018-Aug-11 22:00N 47°16' W 122°23'0 0.0
2018-Aug-11 21:30N 47°16' W 122°23'0 0.0
2018-Aug-11 21:00N 47°16' W 122°23'0 0.0
2018-Aug-11 20:31N 47°16' W 122°23'0 0.0
2018-Aug-11 20:00N 47°16' W 122°23'0 0.0
2018-Aug-11 19:31N 47°16' W 122°23'0 0.0
2018-Aug-11 19:00N 47°16' W 122°23'0 0.0
2018-Aug-11 18:31N 47°16' W 122°23'0 0.0
2018-Aug-11 18:00N 47°16' W 122°23'2 4.9
2018-Aug-11 17:30N 47°17' W 122°26'2 5.0
2018-Aug-11 17:00N 47°19' W 122°28'4 8.4
2018-Aug-11 16:30N 47°22' W 122°24'4 7.5
2018-Aug-11 16:01N 47°26' W 122°24'4 8.4
2018-Aug-11 15:31N 47°30' W 122°26'4 8.5
2018-Aug-11 15:01N 47°34' W 122°28'4 8.4
2018-Aug-11 14:31N 47°38' W 122°28'4 8.1
2018-Aug-11 14:01N 47°42' W 122°28'4 7.9
2018-Aug-11 13:30N 47°46' W 122°26'1 2.7
2018-Aug-11 13:01N 47°47' W 122°24'0 0.8
2018-Aug-11 12:30N 47°47' W 122°24'0 0.0
2018-Aug-11 12:01N 47°47' W 122°24'0 0.0
2018-Aug-11 11:30N 47°47' W 122°24'0 0.0
2018-Aug-11 11:01N 47°47' W 122°24'0 0.0
2018-Aug-11 10:28N 47°47' W 122°24'0 0.0
2018-Aug-11 10:00N 47°47' W 122°24'0 0.0
2018-Aug-11 09:30N 47°47' W 122°24'0 0.0
2018-Aug-11 09:01N 47°47' W 122°24'0 0.0
2018-Aug-11 08:31N 47°47' W 122°24'0 0.0
2018-Aug-11 08:00N 47°47' W 122°24'0 0.0
2018-Aug-11 07:31N 47°47' W 122°24'0 0.3
2018-Aug-11 07:00N 47°47' W 122°24'0 0.2
2018-Aug-11 06:30N 47°47' W 122°24'0 0.0
2018-Aug-11 06:00N 47°47' W 122°24'0 0.0
2018-Aug-11 05:30N 47°47' W 122°24'0 0.0
2018-Aug-11 05:00N 47°47' W 122°24'0 0.0
2018-Aug-11 04:31N 47°47' W 122°24'0 0.0
2018-Aug-11 04:00N 47°47' W 122°24'0 0.0
2018-Aug-11 03:31N 47°47' W 122°24'0 0.0
2018-Aug-11 03:01N 47°47' W 122°24'0 0.0
2018-Aug-11 02:30N 47°47' W 122°24'0 0.0
2018-Aug-11 02:01N 47°47' W 122°24'0 0.0
2018-Aug-11 01:31N 47°47' W 122°24'1 1.2
2018-Aug-11 01:01N 47°46' W 122°24'510.0
2018-Aug-11 00:31N 47°42' W 122°26'4 8.9
2018-Aug-11 00:01N 47°37' W 122°24'1 2.0
2018-Aug-10 23:31N 47°37' W 122°23'0 0.0
2018-Aug-10 23:01N 47°37' W 122°23'0 0.0
2018-Aug-10 22:30N 47°37' W 122°23'0 0.0
2018-Aug-10 22:00N 47°37' W 122°23'0 0.1
2018-Aug-10 21:30N 47°37' W 122°23'0 0.1
2018-Aug-10 21:00N 47°37' W 122°22'0 0.0
2018-Aug-10 20:29N 47°37' W 122°22'0 0.0
2018-Aug-10 20:00N 47°37' W 122°22'0 0.0
2018-Aug-10 19:31N 47°37' W 122°22'0 0.1
2018-Aug-10 18:59N 47°37' W 122°22'0 0.2
2018-Aug-10 18:31N 47°37' W 122°22'0 0.1
2018-Aug-10 18:00N 47°37' W 122°22'0 0.1
2018-Aug-10 17:30N 47°37' W 122°22'0 0.0
2018-Aug-10 16:59N 47°37' W 122°22'0 0.0
2018-Aug-10 16:30N 47°37' W 122°22'2 4.3
2018-Aug-10 16:00N 47°35' W 122°21'0 0.1
2018-Aug-10 15:30N 47°35' W 122°21'0 0.0
2018-Aug-10 15:00N 47°35' W 122°21'0 0.0
2018-Aug-10 14:31N 47°35' W 122°21'3 5.7
2018-Aug-10 14:00N 47°38' W 122°23'1 2.8
2018-Aug-10 13:30N 47°36' W 122°22'2 3.7
2018-Aug-10 13:00N 47°35' W 122°21'0 0.1
2018-Aug-10 12:29N 47°35' W 122°21'0 0.0
2018-Aug-10 11:59N 47°35' W 122°21'0 0.0
2018-Aug-10 11:29N 47°35' W 122°21'0 0.0
2018-Aug-10 10:59N 47°35' W 122°21'0 0.0
2018-Aug-10 10:29N 47°35' W 122°21'0 0.0
2018-Aug-10 09:59N 47°35' W 122°21'0 0.0
2018-Aug-10 09:26N 47°35' W 122°21'0 0.0
2018-Aug-10 08:59N 47°35' W 122°21'0 0.0
2018-Aug-10 08:29N 47°35' W 122°21'0 0.0
2018-Aug-10 07:59N 47°35' W 122°21'0 0.0
2018-Aug-10 07:26N 47°35' W 122°21'0 0.0
2018-Aug-10 06:56N 47°35' W 122°21'0 0.0
2018-Aug-10 06:29N 47°35' W 122°21'0 0.0
2018-Aug-10 05:59N 47°35' W 122°21'0 0.0
2018-Aug-10 05:29N 47°35' W 122°21'0 0.0
2018-Aug-10 04:59N 47°35' W 122°21'0 0.0
2018-Aug-10 04:29N 47°35' W 122°21'0 0.0
2018-Aug-10 03:59N 47°35' W 122°21'0 0.0
2018-Aug-10 03:29N 47°35' W 122°21'0 0.0
2018-Aug-10 02:59N 47°35' W 122°21'0 0.0
2018-Aug-10 02:29N 47°35' W 122°21'0 0.0
2018-Aug-10 01:59N 47°35' W 122°21'0 0.0
2018-Aug-10 01:29N 47°35' W 122°21'0 0.0
2018-Aug-10 00:56N 47°35' W 122°21'0 0.0
2018-Aug-10 00:26N 47°35' W 122°21'1 2.9
2018-Aug-10 00:00N 47°36' W 122°21'3 6.9
2018-Aug-09 23:30N 47°34' W 122°26'4 7.6
2018-Aug-09 23:00N 47°31' W 122°25'4 7.3
2018-Aug-09 22:30N 47°27' W 122°24'4 7.3
2018-Aug-09 22:00N 47°24' W 122°21'3 6.8
2018-Aug-09 21:30N 47°21' W 122°24'4 7.1
2018-Aug-09 21:00N 47°18' W 122°27'3 5.8
2018-Aug-09 20:26N 47°16' W 122°23'0 0.0
2018-Aug-09 19:59N 47°16' W 122°23'0 0.0
2018-Aug-09 19:29N 47°16' W 122°23'0 0.0
2018-Aug-09 18:59N 47°16' W 122°23'0 0.0
2018-Aug-09 18:29N 47°16' W 122°23'0 0.0
2018-Aug-09 17:59N 47°16' W 122°23'0 0.0
2018-Aug-09 17:29N 47°16' W 122°23'0 0.0
2018-Aug-09 16:59N 47°16' W 122°23'0 0.0
2018-Aug-09 16:29N 47°16' W 122°23'0 0.0
2018-Aug-09 15:53N 47°16' W 122°23'0 0.0
2018-Aug-09 15:29N 47°16' W 122°23'0 0.1
2018-Aug-09 14:50N 47°16' W 122°23'0 0.2
2018-Aug-09 14:29N 47°16' W 122°24'1 2.6
2018-Aug-09 13:59N 47°17' W 122°25'1 1.4
2018-Aug-09 13:26N 47°16' W 122°25'0 0.0
2018-Aug-09 12:56N 47°16' W 122°25'0 0.0
2018-Aug-09 12:26N 47°16' W 122°25'0 0.0
2018-Aug-09 11:59N 47°16' W 122°25'0 0.0
2018-Aug-09 11:29N 47°16' W 122°25'0 0.0
2018-Aug-09 10:59N 47°16' W 122°25'0 0.0
2018-Aug-09 10:20N 47°16' W 122°25'0 0.0
2018-Aug-09 09:56N 47°16' W 122°25'0 0.0
2018-Aug-09 09:29N 47°16' W 122°25'0 0.0
2018-Aug-09 08:47N 47°16' W 122°25'0 0.0
2018-Aug-09 08:22N 47°16' W 122°25'0 0.0
2018-Aug-09 07:58N 47°16' W 122°25'0 0.0
2018-Aug-09 07:25N 47°16' W 122°25'0 0.0
2018-Aug-09 06:55N 47°16' W 122°25'0 0.0
2018-Aug-09 06:25N 47°16' W 122°25'0 0.0
2018-Aug-09 05:58N 47°16' W 122°25'0 0.0
2018-Aug-09 05:22N 47°16' W 122°25'0 0.0
2018-Aug-09 04:58N 47°16' W 122°25'0 0.0
2018-Aug-09 04:28N 47°16' W 122°25'0 0.0
2018-Aug-09 03:58N 47°16' W 122°25'0 0.0
2018-Aug-09 03:25N 47°16' W 122°25'0 0.0
2018-Aug-09 02:37N 47°16' W 122°25'0 0.0
2018-Aug-09 02:22N 47°16' W 122°25'0 0.0
2018-Aug-09 01:58N 47°16' W 122°25'0 0.0
2018-Aug-09 01:19N 47°16' W 122°25'0 0.0
2018-Aug-09 00:58N 47°16' W 122°25'0 0.0
2018-Aug-08 23:46N 47°16' W 122°25'0 0.0
2018-Aug-08 23:13N 47°16' W 122°25'0 0.0
2018-Aug-08 22:58N 47°16' W 122°25'0 0.0
2018-Aug-08 22:13N 47°16' W 122°25'0 0.0
2018-Aug-08 21:01N 47°16' W 122°25'0 0.0
2018-Aug-08 20:58N 47°16' W 122°25'0 0.0
2018-Aug-08 20:10N 47°16' W 122°25'0 0.0
2018-Aug-08 19:46N 47°16' W 122°25'0 0.0
2018-Aug-08 18:16N 47°16' W 122°25'0 0.0
2018-Aug-08 17:40N 47°16' W 122°25'0 0.0
2018-Aug-08 16:46N 47°16' W 122°25'0 0.8
2018-Aug-08 16:29N 47°16' W 122°25'0 0.0
2018-Aug-08 13:56N 47°16' W 122°25'0 0.0
2018-Aug-08 13:23N 47°16' W 122°25'0 0.0
2018-Aug-08 12:50N 47°16' W 122°25'0 1.4
2018-Aug-08 12:30N 47°16' W 122°25'2 3.6
2018-Aug-08 12:00N 47°18' W 122°27'2 4.4
2018-Aug-08 11:30N 47°20' W 122°28'4 7.2
2018-Aug-08 11:00N 47°22' W 122°24'3 5.2
2018-Aug-08 10:30N 47°25' W 122°23'3 6.8
2018-Aug-08 10:00N 47°28' W 122°25'4 7.4
2018-Aug-08 09:30N 47°31' W 122°26'4 7.8
2018-Aug-08 09:01N 47°35' W 122°27'3 6.6
2018-Aug-08 08:31N 47°38' W 122°28'3 6.5
2018-Aug-08 08:00N 47°42' W 122°28'3 6.9
2018-Aug-08 07:30N 47°45' W 122°27'3 6.7
2018-Aug-08 07:00N 47°48' W 122°28'3 6.3
2018-Aug-08 06:30N 47°52' W 122°29'3 6.6
2018-Aug-08 06:01N 47°55' W 122°30'4 7.3
2018-Aug-08 05:30N 47°57' W 122°35'4 7.4
2018-Aug-08 05:00N 48°00' W 122°38'19 7.3
2018-Aug-08 02:26N 48°18' W 122°48'4 8.3
2018-Aug-08 01:59N 48°21' W 122°46'5 7.8
2018-Aug-08 01:19N 48°26' W 122°45'2 7.4
2018-Aug-08 00:59N 48°29' W 122°45'4 7.4
2018-Aug-08 00:30N 48°32' W 122°45'4 7.3
2018-Aug-08 00:00N 48°36' W 122°45'4 7.3
2018-Aug-07 23:30N 48°39' W 122°43'3 6.2
2018-Aug-07 23:00N 48°42' W 122°45'3 0.3
2018-Aug-07 12:31N 48°45' W 122°45'0 5.2
2018-Aug-07 12:29N 48°45' W 122°45'3 5.7
2018-Aug-07 12:00N 48°42' W 122°44'2 4.8
2018-Aug-07 11:30N 48°40' W 122°42'3 5.5
2018-Aug-07 11:00N 48°38' W 122°44'3 5.6
2018-Aug-07 10:30N 48°35' W 122°45'3 5.5
2018-Aug-07 10:00N 48°32' W 122°45'3 6.0
2018-Aug-07 09:30N 48°29' W 122°44'3 6.7
2018-Aug-07 08:59N 48°26' W 122°44'25 7.3
2018-Aug-07 05:33N 48°01' W 122°37'2 8.7
2018-Aug-07 05:20N 47°59' W 122°35'4 8.6
2018-Aug-07 04:52N 47°57' W 122°31'3 8.5
2018-Aug-07 04:30N 47°54' W 122°28'5 9.3
2018-Aug-07 04:00N 47°50' W 122°27'5 9.2
2018-Aug-07 03:30N 47°45' W 122°26'4 8.9
2018-Aug-07 03:01N 47°41' W 122°27'5 9.2
2018-Aug-07 02:30N 47°36' W 122°27'5 9.2
2018-Aug-07 02:01N 47°32' W 122°25'5 9.1
2018-Aug-07 01:30N 47°27' W 122°24'4 8.7
2018-Aug-07 01:00N 47°23' W 122°21'5 9.7
2018-Aug-07 00:30N 47°20' W 122°26'3 6.0
2018-Aug-07 00:00N 47°17' W 122°26'1 0.5
2018-Aug-06 22:12N 47°16' W 122°25'0 0.0
2018-Aug-06 21:36N 47°16' W 122°25'0 0.0
2018-Aug-06 21:24N 47°16' W 122°25'0 0.0
2018-Aug-06 16:48N 47°16' W 122°25'0 0.0
2018-Aug-06 16:30N 47°16' W 122°25'0 0.0
2018-Aug-06 16:00N 47°16' W 122°25'0 0.0
2018-Aug-06 14:24N 47°16' W 122°25'0 0.0
2018-Aug-06 14:00N 47°16' W 122°25'0 0.0
2018-Aug-06 13:30N 47°16' W 122°25'0 0.1
2018-Aug-06 13:00N 47°16' W 122°25'0 0.1
2018-Aug-06 12:30N 47°16' W 122°25'0 0.0
2018-Aug-06 11:57N 47°16' W 122°25'0 0.0
2018-Aug-06 11:27N 47°16' W 122°25'0 0.0
2018-Aug-06 10:57N 47°16' W 122°25'0 0.0
2018-Aug-06 10:27N 47°16' W 122°25'0 0.0
2018-Aug-06 09:30N 47°16' W 122°25'0 0.0
2018-Aug-06 09:00N 47°16' W 122°25'0 0.0
2018-Aug-06 08:30N 47°16' W 122°25'0 0.0
2018-Aug-06 08:00N 47°16' W 122°25'0 0.0
2018-Aug-06 07:30N 47°16' W 122°25'0 0.0
2018-Aug-06 06:54N 47°16' W 122°25'0 0.0
2018-Aug-06 06:30N 47°16' W 122°25'0 0.0
2018-Aug-06 05:48N 47°16' W 122°25'0 0.0
2018-Aug-06 05:27N 47°16' W 122°25'0 0.0
2018-Aug-06 05:00N 47°16' W 122°25'0 0.0
2018-Aug-06 03:27N 47°16' W 122°25'0 0.0
2018-Aug-06 02:51N 47°16' W 122°25'0 0.0
2018-Aug-06 02:27N 47°16' W 122°25'0 0.0
2018-Aug-06 02:00N 47°16' W 122°25'0 0.0
2018-Aug-06 01:24N 47°16' W 122°25'0 0.0
2018-Aug-06 00:57N 47°16' W 122°25'0 0.0
2018-Aug-06 00:21N 47°16' W 122°25'0 0.0
2018-Aug-05 23:54N 47°16' W 122°25'0 0.0
2018-Aug-05 23:27N 47°16' W 122°25'0 0.0
2018-Aug-05 23:00N 47°16' W 122°25'0 0.0
2018-Aug-05 22:30N 47°16' W 122°25'0 0.0
2018-Aug-05 21:57N 47°16' W 122°25'0 0.0
2018-Aug-05 21:30N 47°16' W 122°25'1 2.0
2018-Aug-05 21:00N 47°16' W 122°23'0 0.4
2018-Aug-05 20:28N 47°16' W 122°23'0 0.0
2018-Aug-05 19:58N 47°16' W 122°23'0 0.0
2018-Aug-05 19:28N 47°16' W 122°23'0 0.0
2018-Aug-05 18:58N 47°16' W 122°23'0 0.0
2018-Aug-05 18:28N 47°16' W 122°23'0 0.0
2018-Aug-05 17:46N 47°16' W 122°23'0 0.0
2018-Aug-05 17:28N 47°16' W 122°23'0 0.0
2018-Aug-05 16:25N 47°16' W 122°23'0 0.0
2018-Aug-05 15:58N 47°16' W 122°23'0 0.0
2018-Aug-05 15:25N 47°16' W 122°23'0 0.0
2018-Aug-05 14:58N 47°16' W 122°23'0 0.0
2018-Aug-05 13:49N 47°16' W 122°23'0 0.0
2018-Aug-05 13:13N 47°16' W 122°23'0 0.0
2018-Aug-05 12:55N 47°16' W 122°23'0 0.0
2018-Aug-05 12:28N 47°16' W 122°23'0 0.0
2018-Aug-05 11:58N 47°16' W 122°23'2 3.8
2018-Aug-05 11:28N 47°17' W 122°25'1 2.4
2018-Aug-05 10:58N 47°17' W 122°23'0 0.1
2018-Aug-05 10:25N 47°17' W 122°23'0 0.0
2018-Aug-05 09:43N 47°17' W 122°23'0 0.0
2018-Aug-05 08:49N 47°17' W 122°23'0 0.0
2018-Aug-05 08:13N 47°17' W 122°23'0 0.0
2018-Aug-05 07:55N 47°17' W 122°23'0 0.1
2018-Aug-05 07:25N 47°17' W 122°23'0 0.1
2018-Aug-05 06:49N 47°17' W 122°23'0 0.1
2018-Aug-05 06:19N 47°17' W 122°23'1 1.7
2018-Aug-05 05:57N 47°17' W 122°24'1 1.3
2018-Aug-05 05:30N 47°17' W 122°25'0 0.5
2018-Aug-05 04:59N 47°17' W 122°25'0 0.1
2018-Aug-05 04:11N 47°17' W 122°25'0 0.0
2018-Aug-05 03:59N 47°17' W 122°25'0 0.0
2018-Aug-05 03:23N 47°17' W 122°25'0 0.0
2018-Aug-05 02:59N 47°17' W 122°25'0 0.0
2018-Aug-05 02:29N 47°17' W 122°25'0 0.0
2018-Aug-05 01:59N 47°17' W 122°25'0 0.0
2018-Aug-05 01:29N 47°17' W 122°25'0 0.0
2018-Aug-05 00:59N 47°17' W 122°25'0 0.0
2018-Aug-05 00:20N 47°17' W 122°25'0 0.0
2018-Aug-04 23:59N 47°17' W 122°25'0 0.0
2018-Aug-04 23:22N 47°17' W 122°25'0 0.1
2018-Aug-04 22:51N 47°17' W 122°25'1 1.8
2018-Aug-04 22:29N 47°16' W 122°25'0 0.0
2018-Aug-04 21:59N 47°16' W 122°25'0 0.0
2018-Aug-04 21:28N 47°16' W 122°25'0 0.0
2018-Aug-04 20:58N 47°16' W 122°25'0 0.0
2018-Aug-04 20:28N 47°16' W 122°25'0 0.0
2018-Aug-04 19:58N 47°16' W 122°25'0 0.0
2018-Aug-04 19:28N 47°16' W 122°25'0 0.0
2018-Aug-04 18:58N 47°16' W 122°25'0 0.0
2018-Aug-04 18:28N 47°16' W 122°25'0 0.0
2018-Aug-04 17:58N 47°16' W 122°25'0 0.0
2018-Aug-04 17:28N 47°16' W 122°25'0 0.0
2018-Aug-04 16:58N 47°16' W 122°25'0 0.0
2018-Aug-04 16:25N 47°16' W 122°25'0 0.1
2018-Aug-04 15:49N 47°16' W 122°25'1 3.2
2018-Aug-04 15:30N 47°17' W 122°25'1 2.1
2018-Aug-04 14:53N 47°17' W 122°23'0 0.0
2018-Aug-04 14:29N 47°17' W 122°23'0 0.0
2018-Aug-04 13:23N 47°17' W 122°23'0 0.0
2018-Aug-04 12:56N 47°17' W 122°23'0 0.0
2018-Aug-04 07:50N 47°17' W 122°23'0 0.0
2018-Aug-04 06:31N 47°17' W 122°23'  
Track history (hours):
 
Tides and Currents Weather Stations Pressure Air Temp Water Temp Dewpoint Dewpoint Depression Visibility Wind Speed Wind Dir Waves Ship Positions

Millennium Star

Owner: Harley Marine Services, INC, SEATTLE, WA. More information available from US FCC via Universal Licensing System and Coast Guard Vessel Documentation Center.

Last reported at 2018-Aug-14 07:01 UTC. Time now 2018-Aug-14 07:01 UTC.
Position N 47°47' W 122°24'.

Length 30 m; draft 4 m.

Type: Tug. MMSI: 366971980.

Date/timePositionNaut miles runAvg speedWind from/ knotsBaromVisibWave heightAir tempDewpointWater temp
2018-Aug-14 07:01N 47°47' W 122°24'0 0.0
2018-Aug-14 06:31N 47°47' W 122°24'0 0.0
2018-Aug-14 06:01N 47°47' W 122°24'0 0.0
2018-Aug-14 05:30N 47°47' W 122°24'0 0.0
2018-Aug-14 05:01N 47°47' W 122°24'0 0.0
2018-Aug-14 04:30N 47°47' W 122°24'0 0.0
2018-Aug-14 04:01N 47°47' W 122°24'0 0.0
2018-Aug-14 03:30N 47°47' W 122°24'0 0.0
2018-Aug-14 03:01N 47°47' W 122°24'0 0.0
2018-Aug-14 02:30N 47°47' W 122°24'0 0.0
2018-Aug-14 02:00N 47°47' W 122°24'0 0.0
2018-Aug-14 01:31N 47°47' W 122°24'0 0.0
2018-Aug-14 01:01N 47°47' W 122°24'0 0.0
2018-Aug-14 00:30N 47°47' W 122°24'0 0.0
2018-Aug-14 00:01N 47°47' W 122°24'1 1.7
2018-Aug-13 23:30N 47°46' W 122°25'5 9.4
2018-Aug-13 23:01N 47°42' W 122°27'4 7.9
2018-Aug-13 22:31N 47°38' W 122°25'1 2.9
2018-Aug-13 22:01N 47°38' W 122°23'0 0.0
2018-Aug-13 21:31N 47°38' W 122°23'0 0.0
2018-Aug-13 20:59N 47°38' W 122°23'0 0.0
2018-Aug-13 20:30N 47°38' W 122°23'0 0.0
2018-Aug-13 20:00N 47°38' W 122°23'0 0.0
2018-Aug-13 19:30N 47°38' W 122°23'0 0.0
2018-Aug-13 19:01N 47°38' W 122°23'0 0.0
2018-Aug-13 18:30N 47°38' W 122°23'0 0.0
2018-Aug-13 18:00N 47°38' W 122°23'0 0.0
2018-Aug-13 17:30N 47°38' W 122°23'0 0.0
2018-Aug-13 17:01N 47°38' W 122°23'0 0.0
2018-Aug-13 16:30N 47°38' W 122°23'0 0.0
2018-Aug-13 16:01N 47°38' W 122°23'0 0.0
2018-Aug-13 15:31N 47°38' W 122°23'0 0.0
2018-Aug-13 15:00N 47°38' W 122°23'0 0.0
2018-Aug-13 14:31N 47°38' W 122°23'0 0.3
2018-Aug-13 14:01N 47°38' W 122°23'2 3.1
2018-Aug-13 13:31N 47°36' W 122°21'2 3.5
2018-Aug-13 13:01N 47°35' W 122°21'0 0.0
2018-Aug-13 12:31N 47°35' W 122°21'0 0.0
2018-Aug-13 12:00N 47°35' W 122°21'0 0.0
2018-Aug-13 11:31N 47°35' W 122°21'0 0.0
2018-Aug-13 11:01N 47°35' W 122°21'0 0.0
2018-Aug-13 10:31N 47°35' W 122°21'0 0.0
2018-Aug-13 10:01N 47°35' W 122°21'0 0.0
2018-Aug-13 09:30N 47°35' W 122°21'0 0.0
2018-Aug-13 09:00N 47°35' W 122°21'0 0.0
2018-Aug-13 08:31N 47°35' W 122°21'0 0.0
2018-Aug-13 08:01N 47°35' W 122°21'0 0.0
2018-Aug-13 07:31N 47°35' W 122°21'0 0.0
2018-Aug-13 07:01N 47°35' W 122°21'0 0.0
2018-Aug-13 06:31N 47°35' W 122°21'0 0.0
2018-Aug-13 06:01N 47°35' W 122°21'0 0.0
2018-Aug-13 05:31N 47°35' W 122°21'0 0.0
2018-Aug-13 05:00N 47°35' W 122°21'0 0.0
2018-Aug-13 04:30N 47°35' W 122°21'0 0.0
2018-Aug-13 04:01N 47°35' W 122°21'0 0.0
2018-Aug-13 03:30N 47°35' W 122°21'0 0.0
2018-Aug-13 02:59N 47°35' W 122°21'0 0.0
2018-Aug-13 02:31N 47°35' W 122°21'0 0.0
2018-Aug-13 02:00N 47°35' W 122°21'0 0.0
2018-Aug-13 01:30N 47°35' W 122°21'0 0.0
2018-Aug-13 01:00N 47°35' W 122°21'0 0.0
2018-Aug-13 00:30N 47°35' W 122°21'0 0.0
2018-Aug-13 00:01N 47°35' W 122°21'0 0.0
2018-Aug-12 23:30N 47°35' W 122°21'0 0.0
2018-Aug-12 23:01N 47°35' W 122°21'0 0.0
2018-Aug-12 22:31N 47°35' W 122°21'0 0.0
2018-Aug-12 22:01N 47°35' W 122°21'0 0.0
2018-Aug-12 21:30N 47°35' W 122°21'0 0.0
2018-Aug-12 21:01N 47°35' W 122°21'0 0.1
2018-Aug-12 20:31N 47°35' W 122°21'3 6.5
2018-Aug-12 20:00N 47°38' W 122°23'0 0.0
2018-Aug-12 19:30N 47°38' W 122°23'0 0.0
2018-Aug-12 19:00N 47°38' W 122°23'0 0.0
2018-Aug-12 18:31N 47°38' W 122°23'0 0.0
2018-Aug-12 18:01N 47°38' W 122°23'0 0.0
2018-Aug-12 17:31N 47°38' W 122°23'0 0.0
2018-Aug-12 17:00N 47°38' W 122°23'0 0.0
2018-Aug-12 16:31N 47°38' W 122°23'0 0.0
2018-Aug-12 16:00N 47°38' W 122°23'0 0.0
2018-Aug-12 15:30N 47°38' W 122°23'0 0.0
2018-Aug-12 15:01N 47°38' W 122°23'0 0.1
2018-Aug-12 14:30N 47°38' W 122°23'3 5.8
2018-Aug-12 14:01N 47°39' W 122°27'4 8.1
2018-Aug-12 13:30N 47°43' W 122°27'4 8.2
2018-Aug-12 13:00N 47°47' W 122°25'1 1.5
2018-Aug-12 12:30N 47°47' W 122°24'0 0.0
2018-Aug-12 12:00N 47°47' W 122°24'0 0.0
2018-Aug-12 11:31N 47°47' W 122°24'0 0.0
2018-Aug-12 11:00N 47°47' W 122°24'0 0.0
2018-Aug-12 10:31N 47°47' W 122°24'0 0.0
2018-Aug-12 10:00N 47°47' W 122°24'0 0.0
2018-Aug-12 09:31N 47°47' W 122°24'0 0.0
2018-Aug-12 09:01N 47°47' W 122°24'0 0.0
2018-Aug-12 08:31N 47°47' W 122°24'3 5.8
2018-Aug-12 08:00N 47°44' W 122°25'4 8.1
2018-Aug-12 07:31N 47°40' W 122°27'510.3
2018-Aug-12 07:01N 47°35' W 122°27'510.1
2018-Aug-12 06:30N 47°30' W 122°25'510.2
2018-Aug-12 06:01N 47°25' W 122°22'4 8.3
2018-Aug-12 05:31N 47°21' W 122°23'4 8.9
2018-Aug-12 05:01N 47°18' W 122°27'3 5.3
2018-Aug-12 04:29N 47°16' W 122°24'1 1.1
2018-Aug-12 04:01N 47°16' W 122°23'0 0.0
2018-Aug-12 03:30N 47°16' W 122°23'0 0.0
2018-Aug-12 03:01N 47°16' W 122°23'0 0.0
2018-Aug-12 02:30N 47°16' W 122°23'0 0.0
2018-Aug-12 02:01N 47°16' W 122°23'0 0.0
2018-Aug-12 01:31N 47°16' W 122°23'0 0.0
2018-Aug-12 01:00N 47°16' W 122°23'0 0.0
2018-Aug-12 00:31N 47°16' W 122°23'0 0.0
2018-Aug-12 00:00N 47°16' W 122°23'0 0.0
2018-Aug-11 23:28N 47°16' W 122°23'0 0.0
2018-Aug-11 23:00N 47°16' W 122°23'0 0.0
2018-Aug-11 22:30N 47°16' W 122°23'0 0.0
2018-Aug-11 22:00N 47°16' W 122°23'0 0.0
2018-Aug-11 21:30N 47°16' W 122°23'0 0.0
2018-Aug-11 21:00N 47°16' W 122°23'0 0.0
2018-Aug-11 20:31N 47°16' W 122°23'0 0.0
2018-Aug-11 20:00N 47°16' W 122°23'0 0.0
2018-Aug-11 19:31N 47°16' W 122°23'0 0.0
2018-Aug-11 19:00N 47°16' W 122°23'0 0.0
2018-Aug-11 18:31N 47°16' W 122°23'0 0.0
2018-Aug-11 18:00N 47°16' W 122°23'2 4.9
2018-Aug-11 17:30N 47°17' W 122°26'2 5.0
2018-Aug-11 17:00N 47°19' W 122°28'4 8.4
2018-Aug-11 16:30N 47°22' W 122°24'4 7.5
2018-Aug-11 16:01N 47°26' W 122°24'4 8.4
2018-Aug-11 15:31N 47°30' W 122°26'4 8.5
2018-Aug-11 15:01N 47°34' W 122°28'4 8.4
2018-Aug-11 14:31N 47°38' W 122°28'4 8.1
2018-Aug-11 14:01N 47°42' W 122°28'4 7.9
2018-Aug-11 13:30N 47°46' W 122°26'1 2.7
2018-Aug-11 13:01N 47°47' W 122°24'0 0.8
2018-Aug-11 12:30N 47°47' W 122°24'0 0.0
2018-Aug-11 12:01N 47°47' W 122°24'0 0.0
2018-Aug-11 11:30N 47°47' W 122°24'0 0.0
2018-Aug-11 11:01N 47°47' W 122°24'0 0.0
2018-Aug-11 10:28N 47°47' W 122°24'0 0.0
2018-Aug-11 10:00N 47°47' W 122°24'0 0.0
2018-Aug-11 09:30N 47°47' W 122°24'0 0.0
2018-Aug-11 09:01N 47°47' W 122°24'0 0.0
2018-Aug-11 08:31N 47°47' W 122°24'0 0.0
2018-Aug-11 08:00N 47°47' W 122°24'0 0.0
2018-Aug-11 07:31N 47°47' W 122°24'0 0.3
2018-Aug-11 07:00N 47°47' W 122°24'0 0.2
2018-Aug-11 06:30N 47°47' W 122°24'0 0.0
2018-Aug-11 06:00N 47°47' W 122°24'0 0.0
2018-Aug-11 05:30N 47°47' W 122°24'0 0.0
2018-Aug-11 05:00N 47°47' W 122°24'0 0.0
2018-Aug-11 04:31N 47°47' W 122°24'0 0.0
2018-Aug-11 04:00N 47°47' W 122°24'0 0.0
2018-Aug-11 03:31N 47°47' W 122°24'0 0.0
2018-Aug-11 03:01N 47°47' W 122°24'0 0.0
2018-Aug-11 02:30N 47°47' W 122°24'0 0.0
2018-Aug-11 02:01N 47°47' W 122°24'0 0.0
2018-Aug-11 01:31N 47°47' W 122°24'1 1.2
2018-Aug-11 01:01N 47°46' W 122°24'510.0
2018-Aug-11 00:31N 47°42' W 122°26'4 8.9
2018-Aug-11 00:01N 47°37' W 122°24'1 2.0
2018-Aug-10 23:31N 47°37' W 122°23'0 0.0
2018-Aug-10 23:01N 47°37' W 122°23'0 0.0
2018-Aug-10 22:30N 47°37' W 122°23'0 0.0
2018-Aug-10 22:00N 47°37' W 122°23'0 0.1
2018-Aug-10 21:30N 47°37' W 122°23'0 0.1
2018-Aug-10 21:00N 47°37' W 122°22'0 0.0
2018-Aug-10 20:29N 47°37' W 122°22'0 0.0
2018-Aug-10 20:00N 47°37' W 122°22'0 0.0
2018-Aug-10 19:31N 47°37' W 122°22'0 0.1
2018-Aug-10 18:59N 47°37' W 122°22'0 0.2
2018-Aug-10 18:31N 47°37' W 122°22'0 0.1
2018-Aug-10 18:00N 47°37' W 122°22'0 0.1
2018-Aug-10 17:30N 47°37' W 122°22'0 0.0
2018-Aug-10 16:59N 47°37' W 122°22'0 0.0
2018-Aug-10 16:30N 47°37' W 122°22'2 4.3
2018-Aug-10 16:00N 47°35' W 122°21'0 0.1
2018-Aug-10 15:30N 47°35' W 122°21'0 0.0
2018-Aug-10 15:00N 47°35' W 122°21'0 0.0
2018-Aug-10 14:31N 47°35' W 122°21'3 5.7
2018-Aug-10 14:00N 47°38' W 122°23'1 2.8
2018-Aug-10 13:30N 47°36' W 122°22'2 3.7
2018-Aug-10 13:00N 47°35' W 122°21'0 0.1
2018-Aug-10 12:29N 47°35' W 122°21'0 0.0
2018-Aug-10 11:59N 47°35' W 122°21'0 0.0
2018-Aug-10 11:29N 47°35' W 122°21'0 0.0
2018-Aug-10 10:59N 47°35' W 122°21'0 0.0
2018-Aug-10 10:29N 47°35' W 122°21'0 0.0
2018-Aug-10 09:59N 47°35' W 122°21'0 0.0
2018-Aug-10 09:26N 47°35' W 122°21'0 0.0
2018-Aug-10 08:59N 47°35' W 122°21'0 0.0
2018-Aug-10 08:29N 47°35' W 122°21'0 0.0
2018-Aug-10 07:59N 47°35' W 122°21'0 0.0
2018-Aug-10 07:26N 47°35' W 122°21'0 0.0
2018-Aug-10 06:56N 47°35' W 122°21'0 0.0
2018-Aug-10 06:29N 47°35' W 122°21'0 0.0
2018-Aug-10 05:59N 47°35' W 122°21'0 0.0
2018-Aug-10 05:29N 47°35' W 122°21'0 0.0
2018-Aug-10 04:59N 47°35' W 122°21'0 0.0
2018-Aug-10 04:29N 47°35' W 122°21'0 0.0
2018-Aug-10 03:59N 47°35' W 122°21'0 0.0
2018-Aug-10 03:29N 47°35' W 122°21'0 0.0
2018-Aug-10 02:59N 47°35' W 122°21'0 0.0
2018-Aug-10 02:29N 47°35' W 122°21'0 0.0
2018-Aug-10 01:59N 47°35' W 122°21'0 0.0
2018-Aug-10 01:29N 47°35' W 122°21'0 0.0
2018-Aug-10 00:56N 47°35' W 122°21'0 0.0
2018-Aug-10 00:26N 47°35' W 122°21'1 2.9
2018-Aug-10 00:00N 47°36' W 122°21'3 6.9
2018-Aug-09 23:30N 47°34' W 122°26'4 7.6
2018-Aug-09 23:00N 47°31' W 122°25'4 7.3
2018-Aug-09 22:30N 47°27' W 122°24'4 7.3
2018-Aug-09 22:00N 47°24' W 122°21'3 6.8
2018-Aug-09 21:30N 47°21' W 122°24'4 7.1
2018-Aug-09 21:00N 47°18' W 122°27'3 5.8
2018-Aug-09 20:26N 47°16' W 122°23'0 0.0
2018-Aug-09 19:59N 47°16' W 122°23'0 0.0
2018-Aug-09 19:29N 47°16' W 122°23'0 0.0
2018-Aug-09 18:59N 47°16' W 122°23'0 0.0
2018-Aug-09 18:29N 47°16' W 122°23'0 0.0
2018-Aug-09 17:59N 47°16' W 122°23'0 0.0
2018-Aug-09 17:29N 47°16' W 122°23'0 0.0
2018-Aug-09 16:59N 47°16' W 122°23'0 0.0
2018-Aug-09 16:29N 47°16' W 122°23'0 0.0
2018-Aug-09 15:53N 47°16' W 122°23'0 0.0
2018-Aug-09 15:29N 47°16' W 122°23'0 0.1
2018-Aug-09 14:50N 47°16' W 122°23'0 0.2
2018-Aug-09 14:29N 47°16' W 122°24'1 2.6
2018-Aug-09 13:59N 47°17' W 122°25'1 1.4
2018-Aug-09 13:26N 47°16' W 122°25'0 0.0
2018-Aug-09 12:56N 47°16' W 122°25'0 0.0
2018-Aug-09 12:26N 47°16' W 122°25'0 0.0
2018-Aug-09 11:59N 47°16' W 122°25'0 0.0
2018-Aug-09 11:29N 47°16' W 122°25'0 0.0
2018-Aug-09 10:59N 47°16' W 122°25'0 0.0
2018-Aug-09 10:20N 47°16' W 122°25'0 0.0
2018-Aug-09 09:56N 47°16' W 122°25'0 0.0
2018-Aug-09 09:29N 47°16' W 122°25'0 0.0
2018-Aug-09 08:47N 47°16' W 122°25'0 0.0
2018-Aug-09 08:22N 47°16' W 122°25'0 0.0
2018-Aug-09 07:58N 47°16' W 122°25'0 0.0
2018-Aug-09 07:25N 47°16' W 122°25'0 0.0
2018-Aug-09 06:55N 47°16' W 122°25'0 0.0
2018-Aug-09 06:25N 47°16' W 122°25'0 0.0
2018-Aug-09 05:58N 47°16' W 122°25'0 0.0
2018-Aug-09 05:22N 47°16' W 122°25'0 0.0
2018-Aug-09 04:58N 47°16' W 122°25'0 0.0
2018-Aug-09 04:28N 47°16' W 122°25'0 0.0
2018-Aug-09 03:58N 47°16' W 122°25'0 0.0
2018-Aug-09 03:25N 47°16' W 122°25'0 0.0
2018-Aug-09 02:37N 47°16' W 122°25'0 0.0
2018-Aug-09 02:22N 47°16' W 122°25'0 0.0
2018-Aug-09 01:58N 47°16' W 122°25'0 0.0
2018-Aug-09 01:19N 47°16' W 122°25'0 0.0
2018-Aug-09 00:58N 47°16' W 122°25'0 0.0
2018-Aug-08 23:46N 47°16' W 122°25'0 0.0
2018-Aug-08 23:13N 47°16' W 122°25'0 0.0
2018-Aug-08 22:58N 47°16' W 122°25'0 0.0
2018-Aug-08 22:13N 47°16' W 122°25'0 0.0
2018-Aug-08 21:01N 47°16' W 122°25'0 0.0
2018-Aug-08 20:58N 47°16' W 122°25'0 0.0
2018-Aug-08 20:10N 47°16' W 122°25'0 0.0
2018-Aug-08 19:46N 47°16' W 122°25'0 0.0
2018-Aug-08 18:16N 47°16' W 122°25'0 0.0
2018-Aug-08 17:40N 47°16' W 122°25'0 0.0
2018-Aug-08 16:46N 47°16' W 122°25'0 0.8
2018-Aug-08 16:29N 47°16' W 122°25'0 0.0
2018-Aug-08 13:56N 47°16' W 122°25'0 0.0
2018-Aug-08 13:23N 47°16' W 122°25'0 0.0
2018-Aug-08 12:50N 47°16' W 122°25'0 1.4
2018-Aug-08 12:30N 47°16' W 122°25'2 3.6
2018-Aug-08 12:00N 47°18' W 122°27'2 4.4
2018-Aug-08 11:30N 47°20' W 122°28'4 7.2
2018-Aug-08 11:00N 47°22' W 122°24'3 5.2
2018-Aug-08 10:30N 47°25' W 122°23'3 6.8
2018-Aug-08 10:00N 47°28' W 122°25'4 7.4
2018-Aug-08 09:30N 47°31' W 122°26'4 7.8
2018-Aug-08 09:01N 47°35' W 122°27'3 6.6
2018-Aug-08 08:31N 47°38' W 122°28'3 6.5
2018-Aug-08 08:00N 47°42' W 122°28'3 6.9
2018-Aug-08 07:30N 47°45' W 122°27'3 6.7
2018-Aug-08 07:00N 47°48' W 122°28'3 6.3
2018-Aug-08 06:30N 47°52' W 122°29'3 6.6
2018-Aug-08 06:01N 47°55' W 122°30'4 7.3
2018-Aug-08 05:30N 47°57' W 122°35'4 7.4
2018-Aug-08 05:00N 48°00' W 122°38'19 7.3
2018-Aug-08 02:26N 48°18' W 122°48'4 8.3
2018-Aug-08 01:59N 48°21' W 122°46'5 7.8
2018-Aug-08 01:19N 48°26' W 122°45'2 7.4
2018-Aug-08 00:59N 48°29' W 122°45'4 7.4
2018-Aug-08 00:30N 48°32' W 122°45'4 7.3
2018-Aug-08 00:00N 48°36' W 122°45'4 7.3
2018-Aug-07 23:30N 48°39' W 122°43'3 6.2
2018-Aug-07 23:00N 48°42' W 122°45'3 0.3
2018-Aug-07 12:31N 48°45' W 122°45'0 5.2
2018-Aug-07 12:29N 48°45' W 122°45'3 5.7
2018-Aug-07 12:00N 48°42' W 122°44'2 4.8
2018-Aug-07 11:30N 48°40' W 122°42'3 5.5
2018-Aug-07 11:00N 48°38' W 122°44'3 5.6
2018-Aug-07 10:30N 48°35' W 122°45'3 5.5
2018-Aug-07 10:00N 48°32' W 122°45'3 6.0
2018-Aug-07 09:30N 48°29' W 122°44'3 6.7
2018-Aug-07 08:59N 48°26' W 122°44'25 7.3
2018-Aug-07 05:33N 48°01' W 122°37'2 8.7
2018-Aug-07 05:20N 47°59' W 122°35'4 8.6
2018-Aug-07 04:52N 47°57' W 122°31'3 8.5
2018-Aug-07 04:30N 47°54' W 122°28'5 9.3
2018-Aug-07 04:00N 47°50' W 122°27'5 9.2
2018-Aug-07 03:30N 47°45' W 122°26'4 8.9
2018-Aug-07 03:01N 47°41' W 122°27'5 9.2
2018-Aug-07 02:30N 47°36' W 122°27'5 9.2
2018-Aug-07 02:01N 47°32' W 122°25'5 9.1
2018-Aug-07 01:30N 47°27' W 122°24'4 8.7
2018-Aug-07 01:00N 47°23' W 122°21'5 9.7
2018-Aug-07 00:30N 47°20' W 122°26'3 6.0
2018-Aug-07 00:00N 47°17' W 122°26'1 0.5
2018-Aug-06 22:12N 47°16' W 122°25'0 0.0
2018-Aug-06 21:36N 47°16' W 122°25'0 0.0
2018-Aug-06 21:24N 47°16' W 122°25'0 0.0
2018-Aug-06 16:48N 47°16' W 122°25'0 0.0
2018-Aug-06 16:30N 47°16' W 122°25'0 0.0
2018-Aug-06 16:00N 47°16' W 122°25'0 0.0
2018-Aug-06 14:24N 47°16' W 122°25'0 0.0
2018-Aug-06 14:00N 47°16' W 122°25'0 0.0
2018-Aug-06 13:30N 47°16' W 122°25'0 0.1
2018-Aug-06 13:00N 47°16' W 122°25'0 0.1
2018-Aug-06 12:30N 47°16' W 122°25'0 0.0
2018-Aug-06 11:57N 47°16' W 122°25'0 0.0
2018-Aug-06 11:27N 47°16' W 122°25'0 0.0
2018-Aug-06 10:57N 47°16' W 122°25'0 0.0
2018-Aug-06 10:27N 47°16' W 122°25'0 0.0
2018-Aug-06 09:30N 47°16' W 122°25'0 0.0
2018-Aug-06 09:00N 47°16' W 122°25'0 0.0
2018-Aug-06 08:30N 47°16' W 122°25'0 0.0
2018-Aug-06 08:00N 47°16' W 122°25'0 0.0
2018-Aug-06 07:30N 47°16' W 122°25'0 0.0
2018-Aug-06 06:54N 47°16' W 122°25'0 0.0
2018-Aug-06 06:30N 47°16' W 122°25'0 0.0
2018-Aug-06 05:48N 47°16' W 122°25'0 0.0
2018-Aug-06 05:27N 47°16' W 122°25'0 0.0
2018-Aug-06 05:00N 47°16' W 122°25'0 0.0
2018-Aug-06 03:27N 47°16' W 122°25'0 0.0
2018-Aug-06 02:51N 47°16' W 122°25'0 0.0
2018-Aug-06 02:27N 47°16' W 122°25'0 0.0
2018-Aug-06 02:00N 47°16' W 122°25'0 0.0
2018-Aug-06 01:24N 47°16' W 122°25'0 0.0
2018-Aug-06 00:57N 47°16' W 122°25'0 0.0
2018-Aug-06 00:21N 47°16' W 122°25'0 0.0
2018-Aug-05 23:54N 47°16' W 122°25'0 0.0
2018-Aug-05 23:27N 47°16' W 122°25'0 0.0
2018-Aug-05 23:00N 47°16' W 122°25'0 0.0
2018-Aug-05 22:30N 47°16' W 122°25'0 0.0
2018-Aug-05 21:57N 47°16' W 122°25'0 0.0
2018-Aug-05 21:30N 47°16' W 122°25'1 2.0
2018-Aug-05 21:00N 47°16' W 122°23'0 0.4
2018-Aug-05 20:28N 47°16' W 122°23'0 0.0
2018-Aug-05 19:58N 47°16' W 122°23'0 0.0
2018-Aug-05 19:28N 47°16' W 122°23'0 0.0
2018-Aug-05 18:58N 47°16' W 122°23'0 0.0
2018-Aug-05 18:28N 47°16' W 122°23'0 0.0
2018-Aug-05 17:46N 47°16' W 122°23'0 0.0
2018-Aug-05 17:28N 47°16' W 122°23'0 0.0
2018-Aug-05 16:25N 47°16' W 122°23'0 0.0
2018-Aug-05 15:58N 47°16' W 122°23'0 0.0
2018-Aug-05 15:25N 47°16' W 122°23'0 0.0
2018-Aug-05 14:58N 47°16' W 122°23'0 0.0
2018-Aug-05 13:49N 47°16' W 122°23'0 0.0
2018-Aug-05 13:13N 47°16' W 122°23'0 0.0
2018-Aug-05 12:55N 47°16' W 122°23'0 0.0
2018-Aug-05 12:28N 47°16' W 122°23'0 0.0
2018-Aug-05 11:58N 47°16' W 122°23'2 3.8
2018-Aug-05 11:28N 47°17' W 122°25'1 2.4
2018-Aug-05 10:58N 47°17' W 122°23'0 0.1
2018-Aug-05 10:25N 47°17' W 122°23'0 0.0
2018-Aug-05 09:43N 47°17' W 122°23'0 0.0
2018-Aug-05 08:49N 47°17' W 122°23'0 0.0
2018-Aug-05 08:13N 47°17' W 122°23'0 0.0
2018-Aug-05 07:55N 47°17' W 122°23'0 0.1
2018-Aug-05 07:25N 47°17' W 122°23'0 0.1
2018-Aug-05 06:49N 47°17' W 122°23'0 0.1
2018-Aug-05 06:19N 47°17' W 122°23'1 1.7
2018-Aug-05 05:57N 47°17' W 122°24'1 1.3
2018-Aug-05 05:30N 47°17' W 122°25'0 0.5
2018-Aug-05 04:59N 47°17' W 122°25'0 0.1
2018-Aug-05 04:11N 47°17' W 122°25'0 0.0
2018-Aug-05 03:59N 47°17' W 122°25'0 0.0
2018-Aug-05 03:23N 47°17' W 122°25'0 0.0
2018-Aug-05 02:59N 47°17' W 122°25'0 0.0
2018-Aug-05 02:29N 47°17' W 122°25'0 0.0
2018-Aug-05 01:59N 47°17' W 122°25'0 0.0
2018-Aug-05 01:29N 47°17' W 122°25'0 0.0
2018-Aug-05 00:59N 47°17' W 122°25'0 0.0
2018-Aug-05 00:20N 47°17' W 122°25'0 0.0
2018-Aug-04 23:59N 47°17' W 122°25'0 0.0
2018-Aug-04 23:22N 47°17' W 122°25'0 0.1
2018-Aug-04 22:51N 47°17' W 122°25'1 1.8
2018-Aug-04 22:29N 47°16' W 122°25'0 0.0
2018-Aug-04 21:59N 47°16' W 122°25'0 0.0
2018-Aug-04 21:28N 47°16' W 122°25'0 0.0
2018-Aug-04 20:58N 47°16' W 122°25'0 0.0
2018-Aug-04 20:28N 47°16' W 122°25'0 0.0
2018-Aug-04 19:58N 47°16' W 122°25'0 0.0
2018-Aug-04 19:28N 47°16' W 122°25'0 0.0
2018-Aug-04 18:58N 47°16' W 122°25'0 0.0
2018-Aug-04 18:28N 47°16' W 122°25'0 0.0
2018-Aug-04 17:58N 47°16' W 122°25'0 0.0
2018-Aug-04 17:28N 47°16' W 122°25'0 0.0
2018-Aug-04 16:58N 47°16' W 122°25'0 0.0
2018-Aug-04 16:25N 47°16' W 122°25'0 0.1
2018-Aug-04 15:49N 47°16' W 122°25'1 3.2
2018-Aug-04 15:30N 47°17' W 122°25'1 2.1
2018-Aug-04 14:53N 47°17' W 122°23'0 0.0
2018-Aug-04 14:29N 47°17' W 122°23'0 0.0
2018-Aug-04 13:23N 47°17' W 122°23'0 0.0
2018-Aug-04 12:56N 47°17' W 122°23'0 0.0
2018-Aug-04 07:50N 47°17' W 122°23'0 0.0
2018-Aug-04 06:31N 47°17' W 122°23'  

Dump ship's entire track history